sensor_id;sensor_type;location;lat;lon;timestamp;pressure;altitude;pressure_sealevel;temperature;humidity
76694;BME280;69667;52.136;5.424;2023-08-08T00:01:27;101495.88;;;13.62;100.00
76694;BME280;69667;52.136;5.424;2023-08-08T00:03:55;101492.09;;;13.65;100.00
76694;BME280;69667;52.136;5.424;2023-08-08T00:06:24;101490.22;;;13.65;100.00
76694;BME280;69667;52.136;5.424;2023-08-08T00:08:52;101490.09;;;13.67;100.00
76694;BME280;69667;52.136;5.424;2023-08-08T00:11:20;101489.75;;;13.71;100.00
76694;BME280;69667;52.136;5.424;2023-08-08T00:13:49;101491.34;;;13.74;100.00
76694;BME280;69667;52.136;5.424;2023-08-08T00:16:17;101490.13;;;13.78;100.00
76694;BME280;69667;52.136;5.424;2023-08-08T00:18:45;101486.19;;;13.82;100.00
76694;BME280;69667;52.136;5.424;2023-08-08T00:21:14;101478.66;;;13.85;100.00
76694;BME280;69667;52.136;5.424;2023-08-08T00:23:42;101487.69;;;13.86;100.00
76694;BME280;69667;52.136;5.424;2023-08-08T00:26:10;101475.75;;;13.88;100.00
76694;BME280;69667;52.136;5.424;2023-08-08T00:28:39;101482.75;;;13.91;100.00
76694;BME280;69667;52.136;5.424;2023-08-08T00:31:07;101479.78;;;13.94;100.00
76694;BME280;69667;52.136;5.424;2023-08-08T00:33:38;101472.78;;;13.91;100.00
76694;BME280;69667;52.136;5.424;2023-08-08T00:36:06;101479.91;;;13.92;100.00
76694;BME280;69667;52.136;5.424;2023-08-08T00:38:34;101472.91;;;13.90;100.00
76694;BME280;69667;52.136;5.424;2023-08-08T00:41:03;101467.59;;;13.88;100.00
76694;BME280;69667;52.136;5.424;2023-08-08T00:43:32;101471.91;;;13.91;100.00
76694;BME280;69667;52.136;5.424;2023-08-08T00:46:00;101471.16;;;13.89;100.00
76694;BME280;69667;52.136;5.424;2023-08-08T00:48:30;101467.81;;;13.85;100.00
76694;BME280;69667;52.136;5.424;2023-08-08T00:50:59;101465.09;;;13.85;100.00
76694;BME280;69667;52.136;5.424;2023-08-08T00:53:27;101471.16;;;13.89;100.00
76694;BME280;69667;52.136;5.424;2023-08-08T00:55:59;101469.19;;;13.91;100.00
76694;BME280;69667;52.136;5.424;2023-08-08T00:58:27;101468.09;;;13.93;100.00
76694;BME280;69667;52.136;5.424;2023-08-08T01:00:56;101466.09;;;13.95;100.00
76694;BME280;69667;52.136;5.424;2023-08-08T01:03:27;101468.69;;;13.97;100.00
76694;BME280;69667;52.136;5.424;2023-08-08T01:06:03;101462.41;;;13.96;100.00
76694;BME280;69667;52.136;5.424;2023-08-08T01:08:45;101452.31;;;13.98;100.00
76694;BME280;69667;52.136;5.424;2023-08-08T01:11:16;101460.44;;;13.98;100.00
76694;BME280;69667;52.136;5.424;2023-08-08T01:13:45;101454.91;;;14.00;100.00
76694;BME280;69667;52.136;5.424;2023-08-08T01:16:15;101457.50;;;14.02;100.00
76694;BME280;69667;52.136;5.424;2023-08-08T01:18:47;101454.53;;;14.05;100.00
76694;BME280;69667;52.136;5.424;2023-08-08T01:21:17;101466.97;;;14.07;100.00
76694;BME280;69667;52.136;5.424;2023-08-08T01:23:53;101455.41;;;14.05;100.00
76694;BME280;69667;52.136;5.424;2023-08-08T01:26:22;101457.97;;;14.07;100.00
76694;BME280;69667;52.136;5.424;2023-08-08T01:28:52;101453.78;;;14.02;100.00
76694;BME280;69667;52.136;5.424;2023-08-08T01:31:23;101453.66;;;14.04;100.00
76694;BME280;69667;52.136;5.424;2023-08-08T01:33:51;101461.78;;;14.04;100.00
76694;BME280;69667;52.136;5.424;2023-08-08T01:36:25;101451.06;;;14.02;100.00
76694;BME280;69667;52.136;5.424;2023-08-08T01:38:59;101452.91;;;14.02;100.00
76694;BME280;69667;52.136;5.424;2023-08-08T01:41:32;101452.41;;;13.97;100.00
76694;BME280;69667;52.136;5.424;2023-08-08T01:44:02;101452.66;;;13.94;100.00
76694;BME280;69667;52.136;5.424;2023-08-08T01:46:30;101447.47;;;13.91;100.00
76694;BME280;69667;52.136;5.424;2023-08-08T01:48:59;101439.59;;;13.88;100.00
76694;BME280;69667;52.136;5.424;2023-08-08T01:51:27;101445.25;;;13.85;100.00
76694;BME280;69667;52.136;5.424;2023-08-08T01:53:56;101439.97;;;13.83;100.00
76694;BME280;69667;52.136;5.424;2023-08-08T01:56:24;101441.53;;;13.86;100.00
76694;BME280;69667;52.136;5.424;2023-08-08T01:58:52;101429.59;;;13.88;100.00
76694;BME280;69667;52.136;5.424;2023-08-08T02:01:21;101432.19;;;13.90;100.00
76694;BME280;69667;52.136;5.424;2023-08-08T02:03:49;101433.78;;;13.92;100.00
76694;BME280;69667;52.136;5.424;2023-08-08T02:06:18;101443.66;;;13.93;100.00
76694;BME280;69667;52.136;5.424;2023-08-08T02:08:46;101437.38;;;13.93;100.00
76694;BME280;69667;52.136;5.424;2023-08-08T02:11:15;101431.81;;;13.94;100.00
76694;BME280;69667;52.136;5.424;2023-08-08T02:13:43;101435.53;;;13.93;100.00
76694;BME280;69667;52.136;5.424;2023-08-08T02:16:11;101429.09;;;13.94;100.00
76694;BME280;69667;52.136;5.424;2023-08-08T02:18:40;101427.25;;;13.95;100.00
76694;BME280;69667;52.136;5.424;2023-08-08T02:21:08;101423.06;;;13.91;100.00
76694;BME280;69667;52.136;5.424;2023-08-08T02:23:37;101422.19;;;13.90;100.00
76694;BME280;69667;52.136;5.424;2023-08-08T02:26:05;101422.19;;;13.90;100.00
76694;BME280;69667;52.136;5.424;2023-08-08T02:28:33;101421.34;;;13.90;100.00
76694;BME280;69667;52.136;5.424;2023-08-08T02:31:01;101421.22;;;13.91;100.00
76694;BME280;69667;52.136;5.424;2023-08-08T02:33:30;101417.75;;;13.89;100.00
76694;BME280;69667;52.136;5.424;2023-08-08T02:35:58;101415.28;;;13.86;100.00
76694;BME280;69667;52.136;5.424;2023-08-08T02:38:26;101411.69;;;13.86;100.00
76694;BME280;69667;52.136;5.424;2023-08-08T02:40:55;101423.31;;;13.88;100.00
76694;BME280;69667;52.136;5.424;2023-08-08T02:43:23;101416.03;;;13.88;100.00
76694;BME280;69667;52.136;5.424;2023-08-08T02:45:51;101412.31;;;13.89;100.00
76694;BME280;69667;52.136;5.424;2023-08-08T02:48:19;101413.41;;;13.87;100.00
76694;BME280;69667;52.136;5.424;2023-08-08T02:50:48;101415.75;;;13.80;100.00
76694;BME280;69667;52.136;5.424;2023-08-08T02:53:17;101420.06;;;13.72;100.00
76694;BME280;69667;52.136;5.424;2023-08-08T02:55:47;101412.41;;;13.66;100.00
76694;BME280;69667;52.136;5.424;2023-08-08T02:58:16;101413.53;;;13.63;100.00
76694;BME280;69667;52.136;5.424;2023-08-08T03:00:45;101408.19;;;13.62;100.00
76694;BME280;69667;52.136;5.424;2023-08-08T03:03:16;101408.19;;;13.62;100.00
76694;BME280;69667;52.136;5.424;2023-08-08T03:05:45;101406.25;;;13.64;100.00
76694;BME280;69667;52.136;5.424;2023-08-08T03:08:16;101407.97;;;13.65;100.00
76694;BME280;69667;52.136;5.424;2023-08-08T03:10:44;101396.38;;;13.63;100.00
76694;BME280;69667;52.136;5.424;2023-08-08T03:13:13;101400.19;;;13.60;100.00
76694;BME280;69667;52.136;5.424;2023-08-08T03:15:42;101406.59;;;13.59;100.00
76694;BME280;69667;52.136;5.424;2023-08-08T03:18:10;101399.47;;;13.58;100.00
76694;BME280;69667;52.136;5.424;2023-08-08T03:20:38;101411.03;;;13.60;100.00
76694;BME280;69667;52.136;5.424;2023-08-08T03:23:08;101403.53;;;13.64;100.00
76694;BME280;69667;52.136;5.424;2023-08-08T03:25:38;101400.69;;;13.65;100.00
76694;BME280;69667;52.136;5.424;2023-08-08T03:28:07;101401.44;;;13.67;100.00
76694;BME280;69667;52.136;5.424;2023-08-08T03:30:38;101403.19;;;13.68;100.00
76694;BME280;69667;52.136;5.424;2023-08-08T03:33:08;101395.63;;;13.72;100.00
76694;BME280;69667;52.136;5.424;2023-08-08T03:35:37;101399.97;;;13.74;100.00
76694;BME280;69667;52.136;5.424;2023-08-08T03:38:05;101399.34;;;13.71;100.00
76694;BME280;69667;52.136;5.424;2023-08-08T03:40:35;101397.00;;;13.66;100.00
76694;BME280;69667;52.136;5.424;2023-08-08T03:43:04;101393.41;;;13.66;100.00
76694;BME280;69667;52.136;5.424;2023-08-08T03:45:33;101388.50;;;13.60;100.00
76694;BME280;69667;52.136;5.424;2023-08-08T03:48:01;101384.78;;;13.61;100.00
76694;BME280;69667;52.136;5.424;2023-08-08T03:50:30;101389.22;;;13.62;100.00
76694;BME280;69667;52.136;5.424;2023-08-08T03:52:58;101383.19;;;13.58;100.00
76694;BME280;69667;52.136;5.424;2023-08-08T03:55:26;101390.81;;;13.53;100.00
76694;BME280;69667;52.136;5.424;2023-08-08T03:57:55;101380.44;;;13.47;100.00
76694;BME280;69667;52.136;5.424;2023-08-08T04:00:23;101388.81;;;13.44;100.00
76694;BME280;69667;52.136;5.424;2023-08-08T04:02:51;101380.69;;;13.44;100.00
76694;BME280;69667;52.136;5.424;2023-08-08T04:05:20;101382.41;;;13.45;100.00
76694;BME280;69667;52.136;5.424;2023-08-08T04:07:48;101384.16;;;13.46;100.00
76694;BME280;69667;52.136;5.424;2023-08-08T04:10:17;101382.41;;;13.45;100.00
76694;BME280;69667;52.136;5.424;2023-08-08T04:12:45;101375.50;;;13.41;100.00
76694;BME280;69667;52.136;5.424;2023-08-08T04:15:14;101376.47;;;13.40;100.00
76694;BME280;69667;52.136;5.424;2023-08-08T04:17:43;101369.59;;;13.36;100.00
76694;BME280;69667;52.136;5.424;2023-08-08T04:20:11;101367.84;;;13.35;100.00
76694;BME280;69667;52.136;5.424;2023-08-08T04:22:40;101369.09;;;13.31;100.00
76694;BME280;69667;52.136;5.424;2023-08-08T04:25:08;101366.75;;;13.27;100.00
76694;BME280;69667;52.136;5.424;2023-08-08T04:27:37;101370.66;;;13.23;100.00
76694;BME280;69667;52.136;5.424;2023-08-08T04:30:06;101370.28;;;13.16;100.00
76694;BME280;69667;52.136;5.424;2023-08-08T04:32:36;101374.69;;;13.17;100.00
76694;BME280;69667;52.136;5.424;2023-08-08T04:35:04;101379.88;;;13.20;100.00
76694;BME280;69667;52.136;5.424;2023-08-08T04:37:33;101378.03;;;13.21;100.00
76694;BME280;69667;52.136;5.424;2023-08-08T04:40:01;101380.19;;;13.28;100.00
76694;BME280;69667;52.136;5.424;2023-08-08T04:42:30;101377.84;;;13.35;100.00
76694;BME280;69667;52.136;5.424;2023-08-08T04:44:59;101383.66;;;13.41;100.00
76694;BME280;69667;52.136;5.424;2023-08-08T04:47:27;101384.41;;;13.43;100.00
76694;BME280;69667;52.136;5.424;2023-08-08T04:49:56;101374.41;;;13.44;100.00
76694;BME280;69667;52.136;5.424;2023-08-08T04:52:24;101378.72;;;13.46;100.00
76694;BME280;69667;52.136;5.424;2023-08-08T04:54:52;101373.06;;;13.49;100.00
76694;BME280;69667;52.136;5.424;2023-08-08T04:57:20;101369.97;;;13.54;100.00
76694;BME280;69667;52.136;5.424;2023-08-08T04:59:48;101363.72;;;13.53;100.00
76694;BME280;69667;52.136;5.424;2023-08-08T05:02:17;101367.13;;;13.55;100.00
76694;BME280;69667;52.136;5.424;2023-08-08T05:04:46;101367.13;;;13.55;100.00
76694;BME280;69667;52.136;5.424;2023-08-08T05:07:15;101365.03;;;13.59;100.00
76694;BME280;69667;52.136;5.424;2023-08-08T05:09:43;101362.00;;;13.63;100.00
76694;BME280;69667;52.136;5.424;2023-08-08T05:12:11;101369.13;;;13.64;100.00
76694;BME280;69667;52.136;5.424;2023-08-08T05:14:40;101364.19;;;13.69;100.00
76694;BME280;69667;52.136;5.424;2023-08-08T05:17:09;101375.31;;;13.77;100.00
76694;BME280;69667;52.136;5.424;2023-08-08T05:19:37;101371.13;;;13.84;100.00
76694;BME280;69667;52.136;5.424;2023-08-08T05:22:05;101367.19;;;13.88;100.00
76694;BME280;69667;52.136;5.424;2023-08-08T05:24:34;101366.94;;;13.91;100.00
76694;BME280;69667;52.136;5.424;2023-08-08T05:27:03;101373.94;;;13.94;100.00
76694;BME280;69667;52.136;5.424;2023-08-08T05:29:31;101372.22;;;13.93;100.00
76694;BME280;69667;52.136;5.424;2023-08-08T05:31:59;101385.78;;;13.93;100.00
76694;BME280;69667;52.136;5.424;2023-08-08T05:34:28;101382.47;;;13.89;100.00
76694;BME280;69667;52.136;5.424;2023-08-08T05:36:57;101377.66;;;13.93;100.00
76694;BME280;69667;52.136;5.424;2023-08-08T05:39:41;101384.91;;;13.92;100.00
76694;BME280;69667;52.136;5.424;2023-08-08T05:42:09;101382.34;;;13.91;100.00
76694;BME280;69667;52.136;5.424;2023-08-08T05:44:37;101377.16;;;13.88;100.00
76694;BME280;69667;52.136;5.424;2023-08-08T05:47:06;101386.28;;;13.87;100.00
76694;BME280;69667;52.136;5.424;2023-08-08T05:49:34;101383.34;;;13.90;100.00
76694;BME280;69667;52.136;5.424;2023-08-08T05:52:03;101391.09;;;13.94;100.00
76694;BME280;69667;52.136;5.424;2023-08-08T05:54:31;101388.38;;;14.06;100.00
76694;BME280;69667;52.136;5.424;2023-08-08T05:56:59;101380.72;;;14.11;100.00
76694;BME280;69667;52.136;5.424;2023-08-08T05:59:27;101394.78;;;14.16;100.00
76694;BME280;69667;52.136;5.424;2023-08-08T06:01:56;101392.81;;;14.18;100.00
76694;BME280;69667;52.136;5.424;2023-08-08T06:04:25;101389.00;;;14.20;100.00
76694;BME280;69667;52.136;5.424;2023-08-08T06:06:53;101390.97;;;14.29;100.00
76694;BME280;69667;52.136;5.424;2023-08-08T06:09:21;101388.75;;;14.34;100.00
76694;BME280;69667;52.136;5.424;2023-08-08T06:11:50;101384.16;;;14.46;100.00
76694;BME280;69667;52.136;5.424;2023-08-08T06:14:18;101391.28;;;14.58;100.00
76694;BME280;69667;52.136;5.424;2023-08-08T06:16:46;101394.16;;;15.19;100.00
76694;BME280;69667;52.136;5.424;2023-08-08T06:19:14;101394.22;;;16.89;100.00
76694;BME280;69667;52.136;5.424;2023-08-08T06:21:43;101381.84;;;20.60;97.64
76694;BME280;69667;52.136;5.424;2023-08-08T06:24:11;101387.94;;;23.16;90.67
76694;BME280;69667;52.136;5.424;2023-08-08T06:26:39;101387.56;;;24.95;89.35
76694;BME280;69667;52.136;5.424;2023-08-08T06:29:08;101383.44;;;26.25;83.86
76694;BME280;69667;52.136;5.424;2023-08-08T06:31:36;101385.28;;;26.45;79.00
76694;BME280;69667;52.136;5.424;2023-08-08T06:34:04;101389.56;;;27.01;76.08
76694;BME280;69667;52.136;5.424;2023-08-08T06:36:33;101379.25;;;27.69;73.49
76694;BME280;69667;52.136;5.424;2023-08-08T06:39:01;101380.94;;;27.83;72.66
76694;BME280;69667;52.136;5.424;2023-08-08T06:41:30;101389.91;;;28.04;70.19
76694;BME280;69667;52.136;5.424;2023-08-08T06:43:58;101379.16;;;28.47;70.41
76694;BME280;69667;52.136;5.424;2023-08-08T06:46:26;101390.84;;;28.69;73.79
76694;BME280;69667;52.136;5.424;2023-08-08T06:48:55;101387.38;;;29.24;67.55
76694;BME280;69667;52.136;5.424;2023-08-08T06:51:26;101379.41;;;29.58;65.27
76694;BME280;69667;52.136;5.424;2023-08-08T06:53:54;101387.56;;;29.85;65.33
76694;BME280;69667;52.136;5.424;2023-08-08T06:56:22;101387.22;;;29.74;59.95
76694;BME280;69667;52.136;5.424;2023-08-08T06:58:50;101381.91;;;30.40;60.41
76694;BME280;69667;52.136;5.424;2023-08-08T07:01:18;101383.19;;;30.38;53.21
76694;BME280;69667;52.136;5.424;2023-08-08T07:03:46;101376.84;;;30.06;50.44
76694;BME280;69667;52.136;5.424;2023-08-08T07:06:17;101379.88;;;30.47;47.08
76694;BME280;69667;52.136;5.424;2023-08-08T07:08:46;101384.66;;;30.76;44.98
76694;BME280;69667;52.136;5.424;2023-08-08T07:11:14;101378.44;;;31.40;41.22
76694;BME280;69667;52.136;5.424;2023-08-08T07:13:42;101377.06;;;31.02;39.32
76694;BME280;69667;52.136;5.424;2023-08-08T07:16:10;101377.81;;;30.79;39.33
76694;BME280;69667;52.136;5.424;2023-08-08T07:18:39;101377.06;;;31.02;38.67
76694;BME280;69667;52.136;5.424;2023-08-08T07:21:07;101385.31;;;31.08;37.54
76694;BME280;69667;52.136;5.424;2023-08-08T07:23:35;101367.44;;;31.27;37.06
76694;BME280;69667;52.136;5.424;2023-08-08T07:26:03;101372.84;;;31.40;36.67
76694;BME280;69667;52.136;5.424;2023-08-08T07:28:32;101372.84;;;30.81;36.66
76694;BME280;69667;52.136;5.424;2023-08-08T07:31:00;101361.03;;;29.82;37.97
76694;BME280;69667;52.136;5.424;2023-08-08T07:33:28;101362.38;;;30.40;39.41
76694;BME280;69667;52.136;5.424;2023-08-08T07:35:57;101363.75;;;29.64;37.83
76694;BME280;69667;52.136;5.424;2023-08-08T07:38:25;101358.44;;;29.87;37.73
76694;BME280;69667;52.136;5.424;2023-08-08T07:40:53;101353.84;;;30.53;37.55
76694;BME280;69667;52.136;5.424;2023-08-08T07:43:22;101356.88;;;30.52;36.40
76694;BME280;69667;52.136;5.424;2023-08-08T07:45:50;101357.66;;;28.80;41.17
76694;BME280;69667;52.136;5.424;2023-08-08T07:48:18;101357.19;;;27.15;41.68
76694;BME280;69667;52.136;5.424;2023-08-08T07:50:47;101344.13;;;28.33;38.67
76694;BME280;69667;52.136;5.424;2023-08-08T07:53:15;101352.03;;;26.45;42.57
76694;BME280;69667;52.136;5.424;2023-08-08T07:55:44;101335.00;;;28.13;41.86
76694;BME280;69667;52.136;5.424;2023-08-08T07:58:12;101341.84;;;29.18;39.15
76694;BME280;69667;52.136;5.424;2023-08-08T08:00:40;101350.13;;;29.56;38.92
76694;BME280;69667;52.136;5.424;2023-08-08T08:03:09;101353.56;;;29.83;37.47
76694;BME280;69667;52.136;5.424;2023-08-08T08:05:37;101351.19;;;30.04;37.23
76694;BME280;69667;52.136;5.424;2023-08-08T08:08:06;101352.47;;;28.33;38.41
76694;BME280;69667;52.136;5.424;2023-08-08T08:10:34;101356.59;;;27.32;39.88
76694;BME280;69667;52.136;5.424;2023-08-08T08:13:03;101343.31;;;28.26;40.24
76694;BME280;69667;52.136;5.424;2023-08-08T08:15:31;101353.63;;;27.67;39.29
76694;BME280;69667;52.136;5.424;2023-08-08T08:17:59;101351.41;;;26.90;41.47
76694;BME280;69667;52.136;5.424;2023-08-08T08:20:28;101347.16;;;27.14;40.98
76694;BME280;69667;52.136;5.424;2023-08-08T08:22:56;101339.72;;;27.86;40.75
76694;BME280;69667;52.136;5.424;2023-08-08T08:25:24;101336.50;;;28.15;38.78
76694;BME280;69667;52.136;5.424;2023-08-08T08:27:52;101332.06;;;27.95;40.32
76694;BME280;69667;52.136;5.424;2023-08-08T08:30:21;101344.88;;;27.57;43.12
76694;BME280;69667;52.136;5.424;2023-08-08T08:32:51;101343.56;;;27.13;41.98
76694;BME280;69667;52.136;5.424;2023-08-08T08:35:19;101342.41;;;26.82;42.84
76694;BME280;69667;52.136;5.424;2023-08-08T08:37:48;101336.41;;;26.31;44.33
76694;BME280;69667;52.136;5.424;2023-08-08T08:40:17;101340.69;;;25.44;44.30
76694;BME280;69667;52.136;5.424;2023-08-08T08:42:46;101340.81;;;25.15;45.52
76694;BME280;69667;52.136;5.424;2023-08-08T08:45:17;101338.88;;;26.13;44.87
76694;BME280;69667;52.136;5.424;2023-08-08T08:47:49;101339.50;;;26.08;41.89
76694;BME280;69667;52.136;5.424;2023-08-08T08:50:22;101348.84;;;25.10;44.63
76694;BME280;69667;52.136;5.424;2023-08-08T08:52:55;101352.50;;;24.75;47.01
76694;BME280;69667;52.136;5.424;2023-08-08T08:55:24;101353.03;;;25.06;46.41
76694;BME280;69667;52.136;5.424;2023-08-08T08:57:53;101363.72;;;23.71;48.57
76694;BME280;69667;52.136;5.424;2023-08-08T09:00:22;101360.94;;;22.89;50.78
76694;BME280;69667;52.136;5.424;2023-08-08T09:02:53;101363.41;;;22.76;49.90
76694;BME280;69667;52.136;5.424;2023-08-08T09:05:24;101369.00;;;22.21;51.64
76694;BME280;69667;52.136;5.424;2023-08-08T09:07:53;101373.50;;;22.61;50.21
76694;BME280;69667;52.136;5.424;2023-08-08T09:10:21;101360.66;;;23.29;49.78
76694;BME280;69667;52.136;5.424;2023-08-08T09:12:52;101365.13;;;23.82;48.55
76694;BME280;69667;52.136;5.424;2023-08-08T09:15:20;101366.44;;;23.12;48.69
76694;BME280;69667;52.136;5.424;2023-08-08T09:17:49;101377.03;;;22.31;49.97
76694;BME280;69667;52.136;5.424;2023-08-08T09:20:17;101361.66;;;22.06;50.91
76694;BME280;69667;52.136;5.424;2023-08-08T09:22:45;101360.88;;;21.81;52.85
76694;BME280;69667;52.136;5.424;2023-08-08T09:25:14;101353.75;;;21.95;51.33
76694;BME280;69667;52.136;5.424;2023-08-08T09:27:42;101356.84;;;22.00;52.03
76694;BME280;69667;52.136;5.424;2023-08-08T09:30:10;101360.38;;;22.24;52.15
76694;BME280;69667;52.136;5.424;2023-08-08T09:32:39;101354.47;;;23.27;50.72
76694;BME280;69667;52.136;5.424;2023-08-08T09:35:07;101351.50;;;24.03;48.07
76694;BME280;69667;52.136;5.424;2023-08-08T09:37:39;101337.84;;;23.87;48.46
76694;BME280;69667;52.136;5.424;2023-08-08T09:40:07;101342.84;;;25.07;48.02
76694;BME280;69667;52.136;5.424;2023-08-08T09:42:40;101347.75;;;25.32;47.88
76694;BME280;69667;52.136;5.424;2023-08-08T09:45:09;101342.56;;;26.27;46.58
76694;BME280;69667;52.136;5.424;2023-08-08T09:47:38;101344.09;;;26.36;43.33
76694;BME280;69667;52.136;5.424;2023-08-08T09:50:07;101360.16;;;25.57;44.50
76694;BME280;69667;52.136;5.424;2023-08-08T09:52:36;101353.97;;;24.42;44.16
76694;BME280;69667;52.136;5.424;2023-08-08T09:55:07;101368.47;;;23.77;46.60
76694;BME280;69667;52.136;5.424;2023-08-08T09:57:38;101370.00;;;22.98;48.18
76694;BME280;69667;52.136;5.424;2023-08-08T10:00:08;101371.69;;;22.37;50.66
76694;BME280;69667;52.136;5.424;2023-08-08T10:02:44;101373.56;;;21.74;51.51
76694;BME280;69667;52.136;5.424;2023-08-08T10:05:14;101375.44;;;21.82;52.21
76694;BME280;69667;52.136;5.424;2023-08-08T10:07:43;101367.13;;;22.91;48.77
76694;BME280;69667;52.136;5.424;2023-08-08T10:10:12;101369.19;;;23.12;49.36
76694;BME280;69667;52.136;5.424;2023-08-08T10:12:41;101364.81;;;22.33;50.05
76694;BME280;69667;52.136;5.424;2023-08-08T10:15:10;101366.91;;;22.31;50.73
76694;BME280;69667;52.136;5.424;2023-08-08T10:17:40;101371.75;;;23.58;49.85
76694;BME280;69667;52.136;5.424;2023-08-08T10:20:10;101362.44;;;24.26;46.73
76694;BME280;69667;52.136;5.424;2023-08-08T10:22:42;101371.78;;;24.25;46.71
76694;BME280;69667;52.136;5.424;2023-08-08T10:25:22;101375.84;;;24.14;47.70
76694;BME280;69667;52.136;5.424;2023-08-08T10:28:05;101373.94;;;22.95;47.31
76694;BME280;69667;52.136;5.424;2023-08-08T10:30:54;101374.81;;;22.96;49.09
76694;BME280;69667;52.136;5.424;2023-08-08T10:33:27;101389.13;;;23.44;51.21
76694;BME280;69667;52.136;5.424;2023-08-08T10:36:06;101370.06;;;22.82;48.91
76694;BME280;69667;52.136;5.424;2023-08-08T10:41:14;101385.63;;;22.75;49.82
76694;BME280;69667;52.136;5.424;2023-08-08T10:43:56;101378.88;;;23.08;48.94
76694;BME280;69667;52.136;5.424;2023-08-08T10:46:30;101372.63;;;22.61;49.54
76694;BME280;69667;52.136;5.424;2023-08-08T10:49:01;101382.25;;;22.56;50.68
76694;BME280;69667;52.136;5.424;2023-08-08T10:54:34;101378.88;;;23.08;50.08
76694;BME280;69667;52.136;5.424;2023-08-08T10:57:03;101383.94;;;23.19;51.13
76694;BME280;69667;52.136;5.424;2023-08-08T10:59:38;101377.22;;;23.21;50.63
76694;BME280;69667;52.136;5.424;2023-08-08T11:02:07;101375.34;;;23.44;50.60
76694;BME280;69667;52.136;5.424;2023-08-08T11:04:36;101379.69;;;23.76;49.02
76694;BME280;69667;52.136;5.424;2023-08-08T11:07:04;101360.28;;;23.69;46.79
76694;BME280;69667;52.136;5.424;2023-08-08T11:09:33;101380.75;;;23.38;47.64
76694;BME280;69667;52.136;5.424;2023-08-08T11:12:01;101365.56;;;22.89;47.43
76694;BME280;69667;52.136;5.424;2023-08-08T11:14:30;101378.13;;;22.61;48.84
76694;BME280;69667;52.136;5.424;2023-08-08T11:16:59;101363.25;;;23.00;49.81
76694;BME280;69667;52.136;5.424;2023-08-08T11:19:27;101375.75;;;23.33;48.23
76694;BME280;69667;52.136;5.424;2023-08-08T11:21:58;101367.94;;;23.45;47.98
76694;BME280;69667;52.136;5.424;2023-08-08T11:24:26;101379.78;;;23.45;47.88
76694;BME280;69667;52.136;5.424;2023-08-08T11:26:58;101373.19;;;23.69;48.25
76694;BME280;69667;52.136;5.424;2023-08-08T11:29:26;101371.59;;;23.74;48.73
76694;BME280;69667;52.136;5.424;2023-08-08T11:32:00;101359.72;;;23.37;48.89
76694;BME280;69667;52.136;5.424;2023-08-08T11:34:32;101363.47;;;22.68;51.26
76694;BME280;69667;52.136;5.424;2023-08-08T11:37:00;101358.13;;;22.28;52.57
76694;BME280;69667;52.136;5.424;2023-08-08T11:39:29;101359.84;;;22.29;51.62
76694;BME280;69667;52.136;5.424;2023-08-08T11:41:57;101371.16;;;23.03;51.78
76694;BME280;69667;52.136;5.424;2023-08-08T11:44:26;101353.59;;;23.27;49.99
76694;BME280;69667;52.136;5.424;2023-08-08T11:46:54;101355.91;;;22.93;48.70
76694;BME280;69667;52.136;5.424;2023-08-08T11:49:23;101346.00;;;23.51;49.86
76694;BME280;69667;52.136;5.424;2023-08-08T11:51:51;101354.03;;;24.34;49.67
76694;BME280;69667;52.136;5.424;2023-08-08T11:54:27;101341.47;;;24.46;46.94
76694;BME280;69667;52.136;5.424;2023-08-08T11:56:55;101337.78;;;24.24;48.85
76694;BME280;69667;52.136;5.424;2023-08-08T11:59:23;101342.38;;;24.03;47.31
76694;BME280;69667;52.136;5.424;2023-08-08T12:01:51;101357.50;;;24.21;47.73
76694;BME280;69667;52.136;5.424;2023-08-08T12:04:20;101339.75;;;23.72;49.07
76694;BME280;69667;52.136;5.424;2023-08-08T12:06:49;101351.25;;;23.75;50.04
76694;BME280;69667;52.136;5.424;2023-08-08T12:09:18;101347.06;;;23.65;49.88
76694;BME280;69667;52.136;5.424;2023-08-08T12:11:47;101357.41;;;23.03;50.06
76694;BME280;69667;52.136;5.424;2023-08-08T12:14:16;101350.66;;;23.06;50.29
76694;BME280;69667;52.136;5.424;2023-08-08T12:16:46;101342.25;;;23.22;50.75
76694;BME280;69667;52.136;5.424;2023-08-08T12:19:15;101350.69;;;23.20;50.33
76694;BME280;69667;52.136;5.424;2023-08-08T12:21:48;101351.97;;;22.87;51.30
76694;BME280;69667;52.136;5.424;2023-08-08T12:24:18;101354.56;;;23.11;51.04
76694;BME280;69667;52.136;5.424;2023-08-08T12:26:46;101346.72;;;22.78;51.87
76694;BME280;69667;52.136;5.424;2023-08-08T12:29:15;101344.03;;;22.92;50.33
76694;BME280;69667;52.136;5.424;2023-08-08T12:31:43;101352.22;;;22.78;51.55
76694;BME280;69667;52.136;5.424;2023-08-08T12:34:11;101349.16;;;22.34;51.50
76694;BME280;69667;52.136;5.424;2023-08-08T12:36:39;101348.47;;;21.69;52.33
76694;BME280;69667;52.136;5.424;2023-08-08T12:39:07;101358.97;;;21.66;52.97
76694;BME280;69667;52.136;5.424;2023-08-08T12:41:38;101342.53;;;22.12;53.65
76694;BME280;69667;52.136;5.424;2023-08-08T12:44:06;101343.47;;;21.89;53.18
76694;BME280;69667;52.136;5.424;2023-08-08T12:46:35;101345.63;;;22.17;51.71
76694;BME280;69667;52.136;5.424;2023-08-08T12:49:03;101347.53;;;22.09;52.32
76694;BME280;69667;52.136;5.424;2023-08-08T12:51:31;101343.25;;;22.53;54.64
76694;BME280;69667;52.136;5.424;2023-08-08T12:54:00;101344.94;;;23.07;52.83
76694;BME280;69667;52.136;5.424;2023-08-08T12:56:28;101357.34;;;23.11;51.65
76694;BME280;69667;52.136;5.424;2023-08-08T12:58:56;101345.59;;;22.87;50.85
76694;BME280;69667;52.136;5.424;2023-08-08T13:01:25;101346.28;;;22.66;53.47